createdAt,value
2023-02-19T00:02:18.501Z,100.00
2023-02-19T00:06:33.442Z,100.00
2023-02-19T00:10:45.878Z,100.00
2023-02-19T00:14:59.773Z,100.00
2023-02-19T00:19:22.419Z,100.00
2023-02-19T00:23:35.185Z,100.00
2023-02-19T00:27:47.642Z,100.00
2023-02-19T00:32:00.195Z,100.00
2023-02-19T00:36:14.145Z,100.00
2023-02-19T00:40:26.943Z,100.00
2023-02-19T00:44:39.385Z,100.00
2023-02-19T00:48:53.430Z,100.00
2023-02-19T00:53:05.909Z,100.00
2023-02-19T00:57:18.319Z,100.00
2023-02-19T01:01:30.834Z,100.00
2023-02-19T01:05:43.276Z,100.00
2023-02-19T01:09:55.723Z,100.00
2023-02-19T01:14:08.175Z,100.00
2023-02-19T01:18:21.047Z,100.00
2023-02-19T01:22:33.552Z,100.00
2023-02-19T01:26:46.006Z,100.00
2023-02-19T01:31:06.724Z,100.00
2023-02-19T01:35:19.224Z,100.00
2023-02-19T01:39:31.832Z,100.00
2023-02-19T01:44:08.917Z,100.00
2023-02-19T01:48:27.262Z,100.00
2023-02-19T01:52:39.742Z,100.00
2023-02-19T01:56:53.242Z,100.00
2023-02-19T02:01:09.011Z,100.00
2023-02-19T02:05:35.883Z,100.00
2023-02-19T02:10:06.824Z,100.00
2023-02-19T02:14:25.941Z,100.00
2023-02-19T02:19:24.606Z,100.00
2023-02-19T02:24:03.848Z,100.00
2023-02-19T02:28:22.316Z,100.00
2023-02-19T02:32:54.093Z,100.00
2023-02-19T02:37:08.926Z,100.00
2023-02-19T02:41:22.677Z,100.00
2023-02-19T02:45:38.146Z,100.00
2023-02-19T02:50:05.902Z,100.00
2023-02-19T02:54:41.764Z,100.00
2023-02-19T02:58:57.618Z,100.00
2023-02-19T03:03:10.049Z,100.00
2023-02-19T03:07:22.551Z,100.00
2023-02-19T03:11:57.890Z,100.00
2023-02-19T03:16:38.030Z,100.00
2023-02-19T03:20:55.621Z,100.00
2023-02-19T03:25:37.883Z,100.00
2023-02-19T03:29:53.205Z,100.00
2023-02-19T03:34:12.757Z,100.00
2023-02-19T03:38:39.853Z,100.00
2023-02-19T03:43:18.772Z,100.00
2023-02-19T03:47:38.680Z,100.00
2023-02-19T03:52:01.471Z,100.00
2023-02-19T03:56:37.287Z,100.00
2023-02-19T04:01:05.558Z,100.00
2023-02-19T04:05:23.769Z,100.00
2023-02-19T04:09:45.622Z,100.00
2023-02-19T04:14:10.185Z,100.00
2023-02-19T04:18:29.783Z,100.00
2023-02-19T04:22:43.100Z,100.00
2023-02-19T04:26:56.843Z,100.00
2023-02-19T04:31:10.148Z,100.00
2023-02-19T04:35:23.058Z,100.00
2023-02-19T04:39:43.535Z,100.00
2023-02-19T04:43:56.004Z,100.00
2023-02-19T04:48:08.425Z,100.00
2023-02-19T04:52:20.873Z,100.00
2023-02-19T04:56:33.307Z,100.00
2023-02-19T05:00:45.731Z,100.00
2023-02-19T05:04:58.210Z,100.00
2023-02-19T05:09:10.724Z,100.00
2023-02-19T05:13:23.159Z,100.00
2023-02-19T05:17:36.267Z,100.00
2023-02-19T05:21:48.747Z,100.00
2023-02-19T05:26:07.454Z,100.00
2023-02-19T05:30:20.165Z,100.00
2023-02-19T05:34:32.694Z,100.00
2023-02-19T05:38:45.184Z,100.00
2023-02-19T05:42:57.663Z,100.00
2023-02-19T05:47:10.305Z,100.00
2023-02-19T05:51:25.864Z,100.00
2023-02-19T05:55:38.443Z,100.00
2023-02-19T05:59:50.914Z,100.00
2023-02-19T06:04:03.785Z,100.00
2023-02-19T06:08:17.256Z,100.00
2023-02-19T06:12:29.791Z,100.00
2023-02-19T06:16:42.993Z,100.00
2023-02-19T06:20:55.433Z,100.00
2023-02-19T06:25:12.998Z,100.00
2023-02-19T06:29:26.272Z,100.00
2023-02-19T06:33:47.595Z,100.00
2023-02-19T06:38:00.128Z,100.00
2023-02-19T06:42:12.547Z,100.00
2023-02-19T06:46:25.044Z,100.00
2023-02-19T06:50:37.491Z,100.00
2023-02-19T06:54:49.943Z,100.00
2023-02-19T06:59:20.155Z,100.00
2023-02-19T07:03:42.626Z,100.00
2023-02-19T07:07:55.173Z,100.00
2023-02-19T07:12:08.037Z,100.00
2023-02-19T07:16:20.517Z,100.00
2023-02-19T07:20:33.050Z,100.00
2023-02-19T07:24:47.791Z,100.00
2023-02-19T07:29:00.482Z,100.00
2023-02-19T07:33:12.965Z,100.00
2023-02-19T07:37:25.596Z,100.00
2023-02-19T07:41:38.076Z,100.00
2023-02-19T07:45:51.150Z,100.00
2023-02-19T07:50:03.856Z,100.00
2023-02-19T07:54:26.335Z,100.00
2023-02-19T07:58:39.213Z,100.00
2023-02-19T08:03:00.747Z,100.00
2023-02-19T08:07:13.263Z,100.00
2023-02-19T08:11:44.375Z,100.00
2023-02-19T08:16:18.474Z,100.00
2023-02-19T08:20:34.442Z,100.00
2023-02-19T08:24:46.868Z,100.00
2023-02-19T08:28:59.863Z,100.00
2023-02-19T08:33:20.942Z,100.00
2023-02-19T08:37:33.397Z,100.00
2023-02-19T08:41:46.099Z,100.00
2023-02-19T08:45:58.668Z,100.00
2023-02-19T08:50:12.663Z,100.00
2023-02-19T08:54:25.102Z,100.00
2023-02-19T08:58:38.256Z,100.00
2023-02-19T09:02:51.272Z,100.00
2023-02-19T09:07:03.764Z,100.00
2023-02-19T09:11:16.400Z,100.00
2023-02-19T09:15:30.321Z,100.00
2023-02-19T09:19:45.136Z,100.00
2023-02-19T09:23:57.701Z,100.00
2023-02-19T09:28:10.303Z,100.00
2023-02-19T09:32:22.767Z,100.00
2023-02-19T09:36:35.381Z,100.00
2023-02-19T09:40:47.877Z,100.00
2023-02-19T09:45:02.547Z,100.00
2023-02-19T09:49:19.543Z,100.00
2023-02-19T09:53:42.166Z,100.00
2023-02-19T09:57:55.014Z,100.00
2023-02-19T10:02:24.641Z,100.00
2023-02-19T10:06:38.853Z,100.00
2023-02-19T10:10:57.670Z,100.00
2023-02-19T10:15:19.966Z,100.00
2023-02-19T10:19:34.629Z,100.00
2023-02-19T10:23:50.244Z,100.00
2023-02-19T10:28:03.726Z,100.00
2023-02-19T10:32:24.808Z,100.00
2023-02-19T10:36:43.274Z,100.00
2023-02-19T10:41:05.827Z,100.00
2023-02-19T10:45:27.611Z,98.26
2023-02-19T10:49:52.290Z,100.00
2023-02-19T10:54:26.311Z,99.59
2023-02-19T10:58:40.907Z,95.15
2023-02-19T11:03:22.374Z,99.38
2023-02-19T11:07:36.930Z,99.03
2023-02-19T11:12:00.267Z,92.50
2023-02-19T11:16:12.736Z,93.50
2023-02-19T11:20:25.550Z,93.50
2023-02-19T11:24:41.325Z,95.58
2023-02-19T11:29:02.837Z,97.10
2023-02-19T11:33:18.290Z,90.35
2023-02-19T11:37:31.084Z,92.23
2023-02-19T11:42:29.495Z,92.23
2023-02-19T11:47:19.091Z,88.44
2023-02-19T11:52:15.048Z,86.76
2023-02-19T11:56:40.163Z,82.83
2023-02-19T12:01:16.562Z,89.69
2023-02-19T12:05:56.747Z,98.77
2023-02-19T12:10:28.167Z,100.00
2023-02-19T12:14:54.876Z,100.00
2023-02-19T12:19:52.577Z,100.00
2023-02-19T12:24:56.265Z,100.00
2023-02-19T12:29:40.842Z,100.00
2023-02-19T12:34:29.840Z,100.00
2023-02-19T12:38:59.151Z,99.97
2023-02-19T12:43:25.235Z,91.58
2023-02-19T12:47:41.838Z,100.00
2023-02-19T12:52:08.382Z,100.00
2023-02-19T12:56:31.909Z,97.65
2023-02-19T13:00:59.835Z,96.88
2023-02-19T13:05:40.887Z,90.26
2023-02-19T13:10:42.020Z,87.43
2023-02-19T13:15:14.222Z,85.73
2023-02-19T13:19:26.855Z,90.58
2023-02-19T13:24:03.670Z,91.26
2023-02-19T13:29:00.190Z,93.01
2023-02-19T13:33:21.791Z,92.63
2023-02-19T13:37:41.422Z,97.59
2023-02-19T13:41:59.815Z,100.00
2023-02-19T13:46:17.169Z,100.00
2023-02-19T13:50:33.390Z,100.00
2023-02-19T13:54:45.837Z,100.00
2023-02-19T13:59:11.831Z,100.00
2023-02-19T14:03:31.375Z,100.00
2023-02-19T14:07:54.536Z,100.00
2023-02-19T14:12:16.416Z,100.00
2023-02-19T14:16:40.615Z,100.00
2023-02-19T14:21:38.793Z,100.00
2023-02-19T14:26:00.536Z,100.00
2023-02-19T14:30:14.717Z,100.00
2023-02-19T14:34:28.009Z,100.00
2023-02-19T14:38:49.148Z,100.00
2023-02-19T14:43:02.398Z,100.00
2023-02-19T14:47:28.599Z,100.00
2023-02-19T14:51:44.973Z,100.00
2023-02-19T14:55:59.520Z,100.00
2023-02-19T15:00:30.692Z,99.76
2023-02-19T15:04:43.156Z,100.00
2023-02-19T15:09:05.105Z,100.00
2023-02-19T15:13:26.151Z,100.00
2023-02-19T15:17:41.929Z,100.00
2023-02-19T15:21:55.907Z,100.00
2023-02-19T15:26:23.744Z,100.00
2023-02-19T15:30:36.206Z,100.00
2023-02-19T15:35:00.538Z,100.00
2023-02-19T15:39:22.508Z,100.00
2023-02-19T15:43:45.123Z,100.00
2023-02-19T15:48:06.199Z,100.00
2023-02-19T15:52:57.801Z,100.00
2023-02-19T15:57:19.131Z,100.00
2023-02-19T16:01:36.949Z,100.00
2023-02-19T16:06:23.979Z,100.00
2023-02-19T16:10:36.484Z,100.00
2023-02-19T16:14:50.050Z,100.00
2023-02-19T16:19:02.591Z,100.00
2023-02-19T16:23:21.443Z,100.00
2023-02-19T16:27:42.593Z,100.00
2023-02-19T16:32:01.907Z,100.00
2023-02-19T16:36:24.692Z,100.00
2023-02-19T16:40:46.152Z,100.00
2023-02-19T16:44:58.604Z,100.00
2023-02-19T16:49:12.058Z,100.00
2023-02-19T16:53:26.140Z,100.00
2023-02-19T16:57:38.604Z,100.00
2023-02-19T17:01:51.211Z,100.00
2023-02-19T17:06:03.671Z,100.00
2023-02-19T17:10:23.806Z,100.00
2023-02-19T17:14:36.258Z,100.00
2023-02-19T17:18:49.052Z,100.00
2023-02-19T17:23:01.544Z,100.00
2023-02-19T17:27:14.934Z,100.00
2023-02-19T17:31:28.158Z,100.00
2023-02-19T17:35:40.842Z,100.00
2023-02-19T17:39:53.338Z,100.00
2023-02-19T17:44:05.827Z,100.00
2023-02-19T17:48:18.349Z,100.00
2023-02-19T17:52:31.026Z,100.00
2023-02-19T17:56:46.751Z,100.00
2023-02-19T18:00:59.251Z,100.00
2023-02-19T18:05:12.431Z,100.00
2023-02-19T18:09:24.965Z,100.00
2023-02-19T18:13:37.585Z,100.00
2023-02-19T18:17:50.187Z,100.00
2023-02-19T18:22:06.286Z,100.00
2023-02-19T18:26:23.043Z,100.00
2023-02-19T18:30:35.530Z,100.00
2023-02-19T18:34:56.186Z,100.00
2023-02-19T18:39:08.605Z,100.00
2023-02-19T18:43:21.104Z,100.00
2023-02-19T18:47:33.723Z,100.00
2023-02-19T18:51:51.009Z,100.00
2023-02-19T18:56:06.026Z,100.00
2023-02-19T19:00:23.542Z,100.00
2023-02-19T19:04:38.440Z,100.00
2023-02-19T19:08:55.284Z,100.00
2023-02-19T19:13:07.919Z,100.00
2023-02-19T19:17:20.542Z,100.00
2023-02-19T19:21:33.509Z,100.00
2023-02-19T19:25:45.961Z,100.00
2023-02-19T19:29:58.389Z,100.00
2023-02-19T19:34:12.320Z,100.00
2023-02-19T19:38:24.933Z,100.00
2023-02-19T19:42:37.378Z,100.00
2023-02-19T19:46:50.925Z,100.00
2023-02-19T19:51:03.374Z,100.00
2023-02-19T19:55:16.840Z,100.00
2023-02-19T19:59:29.356Z,100.00
2023-02-19T20:03:41.865Z,100.00
2023-02-19T20:07:55.626Z,100.00
2023-02-19T20:12:08.603Z,100.00
2023-02-19T20:16:29.126Z,100.00
2023-02-19T20:20:41.552Z,100.00
2023-02-19T20:24:56.049Z,100.00
2023-02-19T20:29:09.286Z,100.00
2023-02-19T20:33:31.723Z,100.00
2023-02-19T20:37:44.809Z,100.00
2023-02-19T20:41:59.077Z,100.00
2023-02-19T20:46:12.623Z,100.00
2023-02-19T20:50:26.519Z,100.00
2023-02-19T20:54:39.172Z,100.00
2023-02-19T20:58:51.640Z,100.00
2023-02-19T21:03:04.552Z,100.00
2023-02-19T21:07:17.563Z,100.00
2023-02-19T21:11:40.443Z,100.00
2023-02-19T21:15:54.064Z,100.00
2023-02-19T21:20:20.911Z,100.00
2023-02-19T21:24:33.606Z,100.00
2023-02-19T21:28:46.380Z,100.00
2023-02-19T21:32:58.910Z,100.00
2023-02-19T21:37:21.390Z,100.00
2023-02-19T21:41:34.097Z,100.00
2023-02-19T21:45:46.646Z,100.00
2023-02-19T21:49:59.206Z,100.00
2023-02-19T21:54:25.452Z,100.00
2023-02-19T21:58:38.742Z,100.00
2023-02-19T22:02:51.390Z,100.00
2023-02-19T22:07:03.916Z,100.00
2023-02-19T22:11:16.421Z,100.00
2023-02-19T22:15:28.879Z,100.00
2023-02-19T22:19:41.463Z,100.00
2023-02-19T22:23:55.477Z,100.00
2023-02-19T22:28:08.579Z,100.00
2023-02-19T22:32:21.162Z,100.00
2023-02-19T22:36:38.009Z,100.00
2023-02-19T22:40:50.429Z,100.00
2023-02-19T22:45:02.977Z,100.00
2023-02-19T22:49:15.669Z,100.00
2023-02-19T22:53:29.116Z,100.00
2023-02-19T22:57:41.530Z,100.00
2023-02-19T23:01:54.340Z,100.00
2023-02-19T23:06:06.899Z,100.00
2023-02-19T23:10:19.394Z,100.00
2023-02-19T23:14:31.982Z,100.00
2023-02-19T23:18:44.475Z,100.00
2023-02-19T23:22:57.255Z,100.00
2023-02-19T23:27:09.706Z,100.00
2023-02-19T23:31:22.718Z,100.00
2023-02-19T23:35:35.165Z,100.00
2023-02-19T23:39:47.597Z,100.00
2023-02-19T23:43:59.995Z,100.00
2023-02-19T23:48:12.424Z,100.00
2023-02-19T23:52:24.916Z,100.00
2023-02-19T23:56:37.362Z,100.00
